This is the latest recevied weather packets stored in our database for station/object HG8LXL-2. If no packets are shown the sender has not sent any weather packets the latest 10 day(s).
| Time | Temp. | Humidity | Pressure | Rain* | Wind** | Luminosity | Snow |
|---|---|---|---|---|---|---|---|
| 1778155504 | 23.89° C | 61% | 1011.2 hPa | - | - | - | - |
| 1778155204 | 23.89° C | 63% | 1011.3 hPa | - | - | - | - |
| 1778154904 | 24.44° C | 58% | 1011.1 hPa | - | - | - | - |
| 1778154604 | 24.44° C | 63% | 1011.2 hPa | - | - | - | - |
| 1778154304 | 23.33° C | 66% | 1011.3 hPa | - | - | - | - |
| 1778154004 | 22.78° C | 66% | 1011.2 hPa | - | - | - | - |
| 1778153704 | 22.22° C | 66% | 1011.3 hPa | - | - | - | - |
| 1778153404 | 22.22° C | 67% | 1011.3 hPa | - | - | - | - |
| 1778153104 | 21.67° C | 66% | 1011.4 hPa | - | - | - | - |
| 1778152804 | 22.78° C | 60% | 1011.4 hPa | - | - | - | - |
| 1778152504 | 23.89° C | 50% | 1011.2 hPa | - | - | - | - |
| 1778152204 | 26.67° C | 39% | 1010.7 hPa | - | - | - | - |
| 1778151904 | 27.22° C | 37% | 1010.5 hPa | - | - | - | - |
| 1778151604 | 28.33° C | 35% | 1010.3 hPa | - | - | - | - |
| 1778151304 | 28.89° C | 34% | 1010.4 hPa | - | - | - | - |
| 1778151004 | 28.89° C | 35% | 1010.4 hPa | - | - | - | - |
| 1778150704 | 27.78° C | 36% | 1010.5 hPa | - | - | - | - |
| 1778150404 | 28.33° C | 35% | 1010.6 hPa | - | - | - | - |
| 1778150104 | 28.33° C | 35% | 1010.5 hPa | - | - | - | - |
| 1778149804 | 28.89° C | 35% | 1010.5 hPa | - | - | - | - |
| 1778149504 | 27.78° C | 34% | 1010.6 hPa | - | - | - | - |
| 1778149204 | 27.22° C | 36% | 1010.6 hPa | - | - | - | - |
| 1778148904 | 28.33° C | 37% | 1010.6 hPa | - | - | - | - |
| 1778148604 | 27.22° C | 39% | 1010.8 hPa | - | - | - | - |
| 1778148304 | 27.22° C | 38% | 1010.8 hPa | - | - | - | - |
* Rain since midnight (hover to see other rain measurements)
** Current wind speed in m/s (hover to see current wind gust speed)